Ship Status Report: callsign CUHX7

sailwx.info

Track history (hours):
 
Tides and Currents Weather Stations Pressure Air Temp Water Temp Dewpoint Dewpoint Depression Visibility Wind Speed Wind Dir Waves Ship Positions

Callsign CUHX7 (name unknown)

Last reported at 2018-Apr-18 04:30 UTC. Time now 2018-Jul-17 07:21 UTC.
Position N 36°57' W 024°11'.
Warning: this ship's position is months out of date.

Date/timePositionNaut miles runAvg speedWind from/ knotsBaromVisibWave heightAir tempDewpointWater temp
2018-Apr-18 04:30N 36°57' W 024°11'4 7.9
2018-Apr-18 04:00N 36°57' W 024°16'8 7.7
2018-Apr-18 03:00N 36°57' W 024°26'4 7.6
2018-Apr-18 02:31N 36°57' W 024°30'4 7.6
2018-Apr-18 02:00N 36°57' W 024°35'4 7.8
2018-Apr-18 01:30N 36°58' W 024°40'4 7.8
2018-Apr-18 01:00N 36°58' W 024°45'4 7.9
2018-Apr-18 00:30N 36°58' W 024°50'4 7.6
2018-Apr-18 00:00N 36°57' W 024°55'4 7.1
2018-Apr-17 23:31N 36°57' W 024°59'7 7.1
2018-Apr-17 22:30N 36°53' W 025°07'4 7.9
2018-Apr-17 22:00N 36°52' W 025°12'4 7.9
2018-Apr-17 21:30N 36°52' W 025°16'4 7.7
2018-Apr-17 21:00N 36°51' W 025°21'4 7.5
2018-Apr-17 20:30N 36°50' W 025°26'4 7.5
2018-Apr-17 20:00N 36°49' W 025°30'4 7.4
2018-Apr-17 19:30N 36°48' W 025°35'4 7.4
2018-Apr-17 19:00N 36°47' W 025°39'4 7.5
2018-Apr-17 18:30N 36°46' W 025°44'4 7.4
2018-Apr-17 18:00N 36°45' W 025°48'4 7.6
2018-Apr-17 17:30N 36°44' W 025°52'4 7.9
2018-Apr-17 17:00N 36°42' W 025°57'  
Track history (hours):
 
Tides and Currents Weather Stations Pressure Air Temp Water Temp Dewpoint Dewpoint Depression Visibility Wind Speed Wind Dir Waves Ship Positions

Callsign CUHX7 (name unknown)

Last reported at 2018-Apr-18 04:30 UTC. Time now 2018-Jul-17 07:21 UTC.
Position N 36°57' W 024°11'.
Warning: this ship's position is months out of date.

Date/timePositionNaut miles runAvg speedWind from/ knotsBaromVisibWave heightAir tempDewpointWater temp
2018-Apr-18 04:30N 36°57' W 024°11'4 7.9
2018-Apr-18 04:00N 36°57' W 024°16'8 7.7
2018-Apr-18 03:00N 36°57' W 024°26'4 7.6
2018-Apr-18 02:31N 36°57' W 024°30'4 7.6
2018-Apr-18 02:00N 36°57' W 024°35'4 7.8
2018-Apr-18 01:30N 36°58' W 024°40'4 7.8
2018-Apr-18 01:00N 36°58' W 024°45'4 7.9
2018-Apr-18 00:30N 36°58' W 024°50'4 7.6
2018-Apr-18 00:00N 36°57' W 024°55'4 7.1
2018-Apr-17 23:31N 36°57' W 024°59'7 7.1
2018-Apr-17 22:30N 36°53' W 025°07'4 7.9
2018-Apr-17 22:00N 36°52' W 025°12'4 7.9
2018-Apr-17 21:30N 36°52' W 025°16'4 7.7
2018-Apr-17 21:00N 36°51' W 025°21'4 7.5
2018-Apr-17 20:30N 36°50' W 025°26'4 7.5
2018-Apr-17 20:00N 36°49' W 025°30'4 7.4
2018-Apr-17 19:30N 36°48' W 025°35'4 7.4
2018-Apr-17 19:00N 36°47' W 025°39'4 7.5
2018-Apr-17 18:30N 36°46' W 025°44'4 7.4
2018-Apr-17 18:00N 36°45' W 025°48'4 7.6
2018-Apr-17 17:30N 36°44' W 025°52'4 7.9
2018-Apr-17 17:00N 36°42' W 025°57'  

Dump ship's entire track history